Germantown, MD (20876)

6:57 PM EST on December 22, 2014 (GMT -0500)
North Germantown | Change Station
CLOSE
Current Station
Personal Weather Station
Location: Germantown, MD
Elevation: 439 ft
Nearby Weather Stations

Elev 439 ft 39.19 °N, 77.28 °W | Updated 29 seconds ago

Rain
Rain
32.7 °F
Feels Like 33 °F
N
0.7
Wind Variable Wind from NNW
Gusts 6.0 mph

Today
High -- | Low -- °F
--% Chance of Precip.
Yesterday
High -- | Low -- °F
Precip. -- in
7:25 AM 4:49 PM
New Moon, 1% visible
Pressure 30.19 in
Visibility 2.0 miles
Clouds Overcast 400 ft
Windchill 33 °F
Dew Point 31 °F
Humidity 94%
Rainfall 0.17 in
Snow Depth Not available.
UV 0 out of 12
Pollen .10 out of 12
Air Quality Not available.
Flu Activity Not available.
METAR KGAI 222335Z 00000KT 2SM OVC004 01/M01 A3019 RMK AO1 P0001

More Conditions Fewer Conditions

Pressure 30.19 in
Visibility 2.0 miles
Clouds Overcast 400 ft
Windchill 33 °F
Dew Point 31 °F
Humidity 94%
Rainfall 0.17 in
Snow Depth Not available.
UV 0 out of 12
Pollen .10 out of 12
Air Quality Not available.
Flu Activity Not available.
METAR KGAI 222335Z 00000KT 2SM OVC004 01/M01 A3019 RMK AO1 P0001

More Conditions Fewer Conditions

10-Day Weather Forecast

Almanac

Astronomy

Dec. 22, 2014 Rise Set
Actual Time
Civil Twilight
Nautical Twilight
Astronomical Twilight
Moon
Length of Visible Light
Length of Day
Tomorrow will be .
, % of the Moon is Illuminated

Today's Extremes

State Highs State Lows

Community

WunderPhotos

Upload Photos

1,779,723 photos uploaded!

WunderBlogs® & News

Nearby

Air Quality

  Air Quality AQ Index Pollutant
Not available.

Snow Depth

Station Depth Elevation

Earthquake Activity

City Distance Mag. Time & Date
Minimum magnitude displayed is 2.5.

Coastal Water Temperatures

Place Temperature

Nearby Weather Stations